sensor_id;sensor_type;location;lat;lon;timestamp;P1;P2;P0
62054;PMS5003;48653;51.742;-1.256;2023-05-10T00:01:49;2;2;
62054;PMS5003;48653;51.742;-1.256;2023-05-10T00:04:14;3;3;
62054;PMS5003;48653;51.742;-1.256;2023-05-10T00:06:39;4;4;
62054;PMS5003;48653;51.742;-1.256;2023-05-10T00:09:04;6;4;
62054;PMS5003;48653;51.742;-1.256;2023-05-10T00:11:29;5;4;
62054;PMS5003;48653;51.742;-1.256;2023-05-10T00:13:54;3;3;
62054;PMS5003;48653;51.742;-1.256;2023-05-10T00:16:19;3;3;
62054;PMS5003;48653;51.742;-1.256;2023-05-10T00:18:45;4;3;
62054;PMS5003;48653;51.742;-1.256;2023-05-10T00:21:10;7;6;
62054;PMS5003;48653;51.742;-1.256;2023-05-10T00:23:35;3;3;
62054;PMS5003;48653;51.742;-1.256;2023-05-10T00:26:00;6;3;
62054;PMS5003;48653;51.742;-1.256;2023-05-10T00:28:27;5;3;
62054;PMS5003;48653;51.742;-1.256;2023-05-10T00:30:50;4;3;
62054;PMS5003;48653;51.742;-1.256;2023-05-10T00:33:16;11;4;
62054;PMS5003;48653;51.742;-1.256;2023-05-10T00:35:41;5;5;
62054;PMS5003;48653;51.742;-1.256;2023-05-10T00:38:06;2;2;
62054;PMS5003;48653;51.742;-1.256;2023-05-10T00:40:31;6;4;
62054;PMS5003;48653;51.742;-1.256;2023-05-10T00:42:57;6;4;
62054;PMS5003;48653;51.742;-1.256;2023-05-10T00:45:22;3;3;
62054;PMS5003;48653;51.742;-1.256;2023-05-10T00:47:47;5;5;
62054;PMS5003;48653;51.742;-1.256;2023-05-10T00:50:12;6;5;
62054;PMS5003;48653;51.742;-1.256;2023-05-10T00:52:37;4;4;
62054;PMS5003;48653;51.742;-1.256;2023-05-10T00:55:02;8;5;
62054;PMS5003;48653;51.742;-1.256;2023-05-10T00:57:27;7;4;
62054;PMS5003;48653;51.742;-1.256;2023-05-10T00:59:52;6;6;
62054;PMS5003;48653;51.742;-1.256;2023-05-10T01:02:17;4;4;
62054;PMS5003;48653;51.742;-1.256;2023-05-10T01:04:43;7;7;
62054;PMS5003;48653;51.742;-1.256;2023-05-10T01:07:07;3;3;
62054;PMS5003;48653;51.742;-1.256;2023-05-10T01:09:33;5;4;
62054;PMS5003;48653;51.742;-1.256;2023-05-10T01:11:58;5;5;
62054;PMS5003;48653;51.742;-1.256;2023-05-10T01:14:23;4;4;
62054;PMS5003;48653;51.742;-1.256;2023-05-10T01:16:48;8;6;
62054;PMS5003;48653;51.742;-1.256;2023-05-10T01:19:17;7;5;
62054;PMS5003;48653;51.742;-1.256;2023-05-10T01:21:41;5;5;
62054;PMS5003;48653;51.742;-1.256;2023-05-10T01:24:09;7;5;
62054;PMS5003;48653;51.742;-1.256;2023-05-10T01:26:36;7;7;
62054;PMS5003;48653;51.742;-1.256;2023-05-10T01:33:47;4;4;
62054;PMS5003;48653;51.742;-1.256;2023-05-10T01:36:13;6;5;
62054;PMS5003;48653;51.742;-1.256;2023-05-10T01:38:38;5;5;
62054;PMS5003;48653;51.742;-1.256;2023-05-10T01:41:04;4;4;
62054;PMS5003;48653;51.742;-1.256;2023-05-10T01:43:26;7;5;
62054;PMS5003;48653;51.742;-1.256;2023-05-10T01:45:54;7;4;
62054;PMS5003;48653;51.742;-1.256;2023-05-10T01:48:16;7;5;
62054;PMS5003;48653;51.742;-1.256;2023-05-10T01:50:42;6;6;
62054;PMS5003;48653;51.742;-1.256;2023-05-10T01:53:06;5;5;
62054;PMS5003;48653;51.742;-1.256;2023-05-10T01:55:32;5;5;
62054;PMS5003;48653;51.742;-1.256;2023-05-10T01:57:58;3;3;
62054;PMS5003;48653;51.742;-1.256;2023-05-10T02:00:21;6;5;
62054;PMS5003;48653;51.742;-1.256;2023-05-10T02:02:47;10;10;
62054;PMS5003;48653;51.742;-1.256;2023-05-10T02:05:12;5;4;
62054;PMS5003;48653;51.742;-1.256;2023-05-10T02:07:37;4;4;
62054;PMS5003;48653;51.742;-1.256;2023-05-10T02:10:02;6;6;
62054;PMS5003;48653;51.742;-1.256;2023-05-10T02:12:27;6;6;
62054;PMS5003;48653;51.742;-1.256;2023-05-10T02:14:52;6;4;
62054;PMS5003;48653;51.742;-1.256;2023-05-10T02:17:17;4;4;
62054;PMS5003;48653;51.742;-1.256;2023-05-10T02:19:42;5;5;
62054;PMS5003;48653;51.742;-1.256;2023-05-10T02:22:07;5;4;
62054;PMS5003;48653;51.742;-1.256;2023-05-10T02:24:33;5;5;
62054;PMS5003;48653;51.742;-1.256;2023-05-10T02:26:58;5;5;
62054;PMS5003;48653;51.742;-1.256;2023-05-10T02:29:23;6;6;
62054;PMS5003;48653;51.742;-1.256;2023-05-10T02:31:48;4;4;
62054;PMS5003;48653;51.742;-1.256;2023-05-10T02:34:13;5;5;
62054;PMS5003;48653;51.742;-1.256;2023-05-10T02:36:38;4;3;
62054;PMS5003;48653;51.742;-1.256;2023-05-10T02:39:03;6;6;
62054;PMS5003;48653;51.742;-1.256;2023-05-10T02:41:28;14;9;
62054;PMS5003;48653;51.742;-1.256;2023-05-10T02:43:56;13;12;
62054;PMS5003;48653;51.742;-1.256;2023-05-10T02:46:20;12;11;
62054;PMS5003;48653;51.742;-1.256;2023-05-10T02:48:45;18;12;
62054;PMS5003;48653;51.742;-1.256;2023-05-10T02:51:10;16;14;
62054;PMS5003;48653;51.742;-1.256;2023-05-10T02:53:36;15;12;
62054;PMS5003;48653;51.742;-1.256;2023-05-10T02:56:04;14;12;
62054;PMS5003;48653;51.742;-1.256;2023-05-10T02:58:27;16;13;
62054;PMS5003;48653;51.742;-1.256;2023-05-10T03:00:53;18;17;
62054;PMS5003;48653;51.742;-1.256;2023-05-10T03:03:19;15;13;
62054;PMS5003;48653;51.742;-1.256;2023-05-10T03:05:44;17;14;
62054;PMS5003;48653;51.742;-1.256;2023-05-10T03:08:09;15;12;
62054;PMS5003;48653;51.742;-1.256;2023-05-10T03:10:38;12;12;
62054;PMS5003;48653;51.742;-1.256;2023-05-10T03:13:05;12;12;
62054;PMS5003;48653;51.742;-1.256;2023-05-10T03:15:29;15;12;
62054;PMS5003;48653;51.742;-1.256;2023-05-10T03:17:52;12;10;
62054;PMS5003;48653;51.742;-1.256;2023-05-10T03:20:18;12;9;
62054;PMS5003;48653;51.742;-1.256;2023-05-10T03:22:45;11;10;
62054;PMS5003;48653;51.742;-1.256;2023-05-10T03:25:08;17;10;
62054;PMS5003;48653;51.742;-1.256;2023-05-10T03:27:32;11;10;
62054;PMS5003;48653;51.742;-1.256;2023-05-10T03:29:58;13;11;
62054;PMS5003;48653;51.742;-1.256;2023-05-10T03:32:22;14;11;
62054;PMS5003;48653;51.742;-1.256;2023-05-10T03:34:48;15;9;
62054;PMS5003;48653;51.742;-1.256;2023-05-10T03:37:14;9;9;
62054;PMS5003;48653;51.742;-1.256;2023-05-10T03:39:39;12;11;
62054;PMS5003;48653;51.742;-1.256;2023-05-10T03:42:05;14;9;
62054;PMS5003;48653;51.742;-1.256;2023-05-10T03:44:30;12;10;
62054;PMS5003;48653;51.742;-1.256;2023-05-10T03:46:55;12;10;
62054;PMS5003;48653;51.742;-1.256;2023-05-10T03:49:20;13;9;
62054;PMS5003;48653;51.742;-1.256;2023-05-10T03:51:46;12;12;
62054;PMS5003;48653;51.742;-1.256;2023-05-10T03:54:12;9;9;
62054;PMS5003;48653;51.742;-1.256;2023-05-10T03:56:37;8;7;
62054;PMS5003;48653;51.742;-1.256;2023-05-10T03:59:02;8;5;
62054;PMS5003;48653;51.742;-1.256;2023-05-10T04:01:28;10;10;
62054;PMS5003;48653;51.742;-1.256;2023-05-10T04:03:53;9;8;
62054;PMS5003;48653;51.742;-1.256;2023-05-10T04:06:19;9;8;
62054;PMS5003;48653;51.742;-1.256;2023-05-10T04:08:44;13;8;
62054;PMS5003;48653;51.742;-1.256;2023-05-10T04:11:11;16;10;
62054;PMS5003;48653;51.742;-1.256;2023-05-10T04:13:34;11;10;
62054;PMS5003;48653;51.742;-1.256;2023-05-10T04:16:00;13;12;
62054;PMS5003;48653;51.742;-1.256;2023-05-10T04:18:26;9;7;
62054;PMS5003;48653;51.742;-1.256;2023-05-10T04:20:51;8;8;
62054;PMS5003;48653;51.742;-1.256;2023-05-10T04:23:17;6;6;
62054;PMS5003;48653;51.742;-1.256;2023-05-10T04:25:42;8;7;
62054;PMS5003;48653;51.742;-1.256;2023-05-10T04:28:06;11;7;
62054;PMS5003;48653;51.742;-1.256;2023-05-10T04:30:32;8;8;
62054;PMS5003;48653;51.742;-1.256;2023-05-10T04:32:58;13;9;
62054;PMS5003;48653;51.742;-1.256;2023-05-10T04:35:23;12;9;
62054;PMS5003;48653;51.742;-1.256;2023-05-10T04:37:48;9;7;
62054;PMS5003;48653;51.742;-1.256;2023-05-10T04:40:13;11;10;
62054;PMS5003;48653;51.742;-1.256;2023-05-10T04:42:39;14;11;
62054;PMS5003;48653;51.742;-1.256;2023-05-10T04:45:04;13;10;
62054;PMS5003;48653;51.742;-1.256;2023-05-10T04:47:28;13;13;
62054;PMS5003;48653;51.742;-1.256;2023-05-10T04:49:54;10;9;
62054;PMS5003;48653;51.742;-1.256;2023-05-10T04:52:20;14;11;
62054;PMS5003;48653;51.742;-1.256;2023-05-10T04:54:44;14;13;
62054;PMS5003;48653;51.742;-1.256;2023-05-10T04:57:10;13;12;
62054;PMS5003;48653;51.742;-1.256;2023-05-10T04:59:36;14;10;
62054;PMS5003;48653;51.742;-1.256;2023-05-10T05:02:01;14;14;
62054;PMS5003;48653;51.742;-1.256;2023-05-10T05:04:26;14;12;
62054;PMS5003;48653;51.742;-1.256;2023-05-10T05:06:51;13;13;
62054;PMS5003;48653;51.742;-1.256;2023-05-10T05:09:16;19;14;
62054;PMS5003;48653;51.742;-1.256;2023-05-10T05:11:42;17;15;
62054;PMS5003;48653;51.742;-1.256;2023-05-10T05:14:08;14;12;
62054;PMS5003;48653;51.742;-1.256;2023-05-10T05:16:33;20;17;
62054;PMS5003;48653;51.742;-1.256;2023-05-10T05:19:00;13;12;
62054;PMS5003;48653;51.742;-1.256;2023-05-10T05:21:25;20;14;
62054;PMS5003;48653;51.742;-1.256;2023-05-10T05:23:51;16;14;
62054;PMS5003;48653;51.742;-1.256;2023-05-10T05:26:16;16;15;
62054;PMS5003;48653;51.742;-1.256;2023-05-10T05:28:42;18;14;
62054;PMS5003;48653;51.742;-1.256;2023-05-10T05:31:07;19;17;
62054;PMS5003;48653;51.742;-1.256;2023-05-10T05:33:32;21;19;
62054;PMS5003;48653;51.742;-1.256;2023-05-10T05:36:00;23;20;
62054;PMS5003;48653;51.742;-1.256;2023-05-10T05:38:22;31;24;
62054;PMS5003;48653;51.742;-1.256;2023-05-10T05:40:48;22;20;
62054;PMS5003;48653;51.742;-1.256;2023-05-10T05:43:14;30;25;
62054;PMS5003;48653;51.742;-1.256;2023-05-10T05:45:39;19;18;
62054;PMS5003;48653;51.742;-1.256;2023-05-10T05:48:05;26;20;
62054;PMS5003;48653;51.742;-1.256;2023-05-10T05:50:30;26;25;
62054;PMS5003;48653;51.742;-1.256;2023-05-10T05:52:56;22;22;
62054;PMS5003;48653;51.742;-1.256;2023-05-10T05:55:21;31;25;
62054;PMS5003;48653;51.742;-1.256;2023-05-10T05:57:47;26;23;
62054;PMS5003;48653;51.742;-1.256;2023-05-10T06:00:12;26;22;
62054;PMS5003;48653;51.742;-1.256;2023-05-10T06:02:37;25;23;
62054;PMS5003;48653;51.742;-1.256;2023-05-10T06:05:03;28;22;
62054;PMS5003;48653;51.742;-1.256;2023-05-10T06:07:28;28;25;
62054;PMS5003;48653;51.742;-1.256;2023-05-10T06:09:54;26;22;
62054;PMS5003;48653;51.742;-1.256;2023-05-10T06:12:19;27;16;
62054;PMS5003;48653;51.742;-1.256;2023-05-10T06:14:45;25;22;
62054;PMS5003;48653;51.742;-1.256;2023-05-10T06:17:10;31;25;
62054;PMS5003;48653;51.742;-1.256;2023-05-10T06:19:36;30;26;
62054;PMS5003;48653;51.742;-1.256;2023-05-10T06:22:01;31;23;
62054;PMS5003;48653;51.742;-1.256;2023-05-10T06:24:27;31;27;
62054;PMS5003;48653;51.742;-1.256;2023-05-10T06:26:52;28;24;
62054;PMS5003;48653;51.742;-1.256;2023-05-10T06:29:17;28;24;
62054;PMS5003;48653;51.742;-1.256;2023-05-10T06:31:42;32;27;
62054;PMS5003;48653;51.742;-1.256;2023-05-10T06:34:08;31;26;
62054;PMS5003;48653;51.742;-1.256;2023-05-10T06:36:33;30;30;
62054;PMS5003;48653;51.742;-1.256;2023-05-10T06:38:58;38;30;
62054;PMS5003;48653;51.742;-1.256;2023-05-10T06:41:23;31;28;
62054;PMS5003;48653;51.742;-1.256;2023-05-10T06:43:49;32;28;
62054;PMS5003;48653;51.742;-1.256;2023-05-10T06:46:14;31;30;
62054;PMS5003;48653;51.742;-1.256;2023-05-10T06:48:41;32;30;
62054;PMS5003;48653;51.742;-1.256;2023-05-10T06:51:07;37;28;
62054;PMS5003;48653;51.742;-1.256;2023-05-10T06:53:31;40;31;
62054;PMS5003;48653;51.742;-1.256;2023-05-10T06:55:57;30;24;
62054;PMS5003;48653;51.742;-1.256;2023-05-10T06:58:23;33;28;
62054;PMS5003;48653;51.742;-1.256;2023-05-10T07:00:48;33;28;
62054;PMS5003;48653;51.742;-1.256;2023-05-10T07:03:13;32;28;
62054;PMS5003;48653;51.742;-1.256;2023-05-10T07:05:38;36;29;
62054;PMS5003;48653;51.742;-1.256;2023-05-10T07:08:04;29;26;
62054;PMS5003;48653;51.742;-1.256;2023-05-10T07:10:29;31;28;
62054;PMS5003;48653;51.742;-1.256;2023-05-10T07:12:55;32;29;
62054;PMS5003;48653;51.742;-1.256;2023-05-10T07:15:20;29;26;
62054;PMS5003;48653;51.742;-1.256;2023-05-10T07:17:45;29;27;
62054;PMS5003;48653;51.742;-1.256;2023-05-10T07:22:36;32;28;
62054;PMS5003;48653;51.742;-1.256;2023-05-10T07:25:02;27;24;
62054;PMS5003;48653;51.742;-1.256;2023-05-10T07:27:27;25;24;
62054;PMS5003;48653;51.742;-1.256;2023-05-10T07:29:52;30;24;
62054;PMS5003;48653;51.742;-1.256;2023-05-10T07:32:17;25;24;
62054;PMS5003;48653;51.742;-1.256;2023-05-10T07:34:42;23;21;
62054;PMS5003;48653;51.742;-1.256;2023-05-10T07:37:08;23;22;
62054;PMS5003;48653;51.742;-1.256;2023-05-10T07:39:33;26;23;
62054;PMS5003;48653;51.742;-1.256;2023-05-10T07:41:58;27;24;
62054;PMS5003;48653;51.742;-1.256;2023-05-10T07:44:24;25;21;
62054;PMS5003;48653;51.742;-1.256;2023-05-10T07:46:49;25;23;
62054;PMS5003;48653;51.742;-1.256;2023-05-10T07:49:14;26;22;
62054;PMS5003;48653;51.742;-1.256;2023-05-10T07:51:40;25;20;
62054;PMS5003;48653;51.742;-1.256;2023-05-10T07:54:05;21;20;
62054;PMS5003;48653;51.742;-1.256;2023-05-10T07:56:31;21;20;
62054;PMS5003;48653;51.742;-1.256;2023-05-10T07:58:56;27;25;
62054;PMS5003;48653;51.742;-1.256;2023-05-10T08:01:22;23;20;
62054;PMS5003;48653;51.742;-1.256;2023-05-10T08:03:47;32;22;
62054;PMS5003;48653;51.742;-1.256;2023-05-10T08:06:13;20;17;
62054;PMS5003;48653;51.742;-1.256;2023-05-10T08:08:38;25;22;
62054;PMS5003;48653;51.742;-1.256;2023-05-10T08:11:03;25;21;
62054;PMS5003;48653;51.742;-1.256;2023-05-10T08:13:28;22;19;
62054;PMS5003;48653;51.742;-1.256;2023-05-10T08:15:54;19;17;
62054;PMS5003;48653;51.742;-1.256;2023-05-10T08:18:20;26;22;
62054;PMS5003;48653;51.742;-1.256;2023-05-10T08:20:45;22;20;
62054;PMS5003;48653;51.742;-1.256;2023-05-10T08:23:11;26;22;
62054;PMS5003;48653;51.742;-1.256;2023-05-10T08:25:37;17;14;
62054;PMS5003;48653;51.742;-1.256;2023-05-10T08:28:02;17;16;
62054;PMS5003;48653;51.742;-1.256;2023-05-10T08:30:28;21;16;
62054;PMS5003;48653;51.742;-1.256;2023-05-10T08:32:54;18;13;
62054;PMS5003;48653;51.742;-1.256;2023-05-10T08:35:19;14;14;
62054;PMS5003;48653;51.742;-1.256;2023-05-10T08:37:44;20;15;
62054;PMS5003;48653;51.742;-1.256;2023-05-10T08:40:10;16;14;
62054;PMS5003;48653;51.742;-1.256;2023-05-10T08:42:36;15;11;
62054;PMS5003;48653;51.742;-1.256;2023-05-10T08:45:01;12;11;
62054;PMS5003;48653;51.742;-1.256;2023-05-10T08:47:27;15;11;
62054;PMS5003;48653;51.742;-1.256;2023-05-10T08:49:52;13;13;
62054;PMS5003;48653;51.742;-1.256;2023-05-10T08:52:18;10;9;
62054;PMS5003;48653;51.742;-1.256;2023-05-10T08:54:43;9;7;
62054;PMS5003;48653;51.742;-1.256;2023-05-10T08:57:08;10;10;
62054;PMS5003;48653;51.742;-1.256;2023-05-10T08:59:33;9;8;
62054;PMS5003;48653;51.742;-1.256;2023-05-10T09:01:58;8;8;
62054;PMS5003;48653;51.742;-1.256;2023-05-10T09:04:24;6;6;
62054;PMS5003;48653;51.742;-1.256;2023-05-10T09:06:49;8;8;
62054;PMS5003;48653;51.742;-1.256;2023-05-10T09:09:14;9;8;
62054;PMS5003;48653;51.742;-1.256;2023-05-10T09:11:39;8;6;
62054;PMS5003;48653;51.742;-1.256;2023-05-10T09:14:04;10;7;
62054;PMS5003;48653;51.742;-1.256;2023-05-10T09:16:29;10;8;
62054;PMS5003;48653;51.742;-1.256;2023-05-10T09:18:54;12;7;
62054;PMS5003;48653;51.742;-1.256;2023-05-10T09:21:19;10;8;
62054;PMS5003;48653;51.742;-1.256;2023-05-10T09:23:45;14;9;
62054;PMS5003;48653;51.742;-1.256;2023-05-10T09:26:10;11;9;
62054;PMS5003;48653;51.742;-1.256;2023-05-10T09:28:49;10;6;
62054;PMS5003;48653;51.742;-1.256;2023-05-10T09:31:00;12;9;
62054;PMS5003;48653;51.742;-1.256;2023-05-10T09:33:26;14;12;
62054;PMS5003;48653;51.742;-1.256;2023-05-10T09:35:51;13;8;
62054;PMS5003;48653;51.742;-1.256;2023-05-10T09:38:16;15;13;
62054;PMS5003;48653;51.742;-1.256;2023-05-10T09:40:41;11;10;
62054;PMS5003;48653;51.742;-1.256;2023-05-10T09:43:06;15;12;
62054;PMS5003;48653;51.742;-1.256;2023-05-10T09:45:32;8;8;
62054;PMS5003;48653;51.742;-1.256;2023-05-10T09:47:57;10;7;
62054;PMS5003;48653;51.742;-1.256;2023-05-10T09:50:22;9;7;
62054;PMS5003;48653;51.742;-1.256;2023-05-10T09:52:48;11;8;
62054;PMS5003;48653;51.742;-1.256;2023-05-10T09:55:12;4;4;
62054;PMS5003;48653;51.742;-1.256;2023-05-10T09:57:37;7;6;
62054;PMS5003;48653;51.742;-1.256;2023-05-10T10:00:02;4;4;
62054;PMS5003;48653;51.742;-1.256;2023-05-10T10:02:28;5;2;
62054;PMS5003;48653;51.742;-1.256;2023-05-10T10:04:53;5;3;
62054;PMS5003;48653;51.742;-1.256;2023-05-10T10:07:22;4;1;
62054;PMS5003;48653;51.742;-1.256;2023-05-10T10:09:43;5;4;
62054;PMS5003;48653;51.742;-1.256;2023-05-10T10:12:09;6;4;
62054;PMS5003;48653;51.742;-1.256;2023-05-10T10:14:34;5;3;
62054;PMS5003;48653;51.742;-1.256;2023-05-10T10:17:00;4;4;
62054;PMS5003;48653;51.742;-1.256;2023-05-10T10:19:24;6;3;
62054;PMS5003;48653;51.742;-1.256;2023-05-10T10:21:49;5;5;
62054;PMS5003;48653;51.742;-1.256;2023-05-10T10:24:14;4;2;
62054;PMS5003;48653;51.742;-1.256;2023-05-10T10:26:39;6;4;
62054;PMS5003;48653;51.742;-1.256;2023-05-10T10:29:06;2;2;
62054;PMS5003;48653;51.742;-1.256;2023-05-10T10:31:32;3;1;
62054;PMS5003;48653;51.742;-1.256;2023-05-10T10:33:59;2;1;
62054;PMS5003;48653;51.742;-1.256;2023-05-10T10:36:19;3;2;
62054;PMS5003;48653;51.742;-1.256;2023-05-10T10:41:10;7;5;
62054;PMS5003;48653;51.742;-1.256;2023-05-10T10:43:35;6;3;
62054;PMS5003;48653;51.742;-1.256;2023-05-10T10:48:25;4;2;
62054;PMS5003;48653;51.742;-1.256;2023-05-10T10:53:15;2;2;
62054;PMS5003;48653;51.742;-1.256;2023-05-10T10:58:05;6;2;
62054;PMS5003;48653;51.742;-1.256;2023-05-10T11:00:30;4;2;
62054;PMS5003;48653;51.742;-1.256;2023-05-10T11:02:57;4;4;
62054;PMS5003;48653;51.742;-1.256;2023-05-10T11:05:23;1;1;
62054;PMS5003;48653;51.742;-1.256;2023-05-10T11:07:51;1;0;
62054;PMS5003;48653;51.742;-1.256;2023-05-10T11:10:11;1;1;
62054;PMS5003;48653;51.742;-1.256;2023-05-10T11:15:01;2;2;
62054;PMS5003;48653;51.742;-1.256;2023-05-10T11:17:26;1;1;
62054;PMS5003;48653;51.742;-1.256;2023-05-10T11:22:16;1;1;
62054;PMS5003;48653;51.742;-1.256;2023-05-10T11:24:41;2;1;
62054;PMS5003;48653;51.742;-1.256;2023-05-10T11:27:06;5;1;
62054;PMS5003;48653;51.742;-1.256;2023-05-10T11:29:31;3;1;
62054;PMS5003;48653;51.742;-1.256;2023-05-10T11:31:56;1;1;
62054;PMS5003;48653;51.742;-1.256;2023-05-10T11:34:23;1;1;
62054;PMS5003;48653;51.742;-1.256;2023-05-10T11:36:46;3;3;
62054;PMS5003;48653;51.742;-1.256;2023-05-10T11:39:16;2;2;
62054;PMS5003;48653;51.742;-1.256;2023-05-10T11:41:36;1;1;
62054;PMS5003;48653;51.742;-1.256;2023-05-10T11:44:01;1;1;
62054;PMS5003;48653;51.742;-1.256;2023-05-10T11:46:27;1;1;
62054;PMS5003;48653;51.742;-1.256;2023-05-10T11:48:52;2;0;
62054;PMS5003;48653;51.742;-1.256;2023-05-10T11:51:19;2;1;
62054;PMS5003;48653;51.742;-1.256;2023-05-10T11:53:41;1;1;
62054;PMS5003;48653;51.742;-1.256;2023-05-10T11:56:07;3;1;
62054;PMS5003;48653;51.742;-1.256;2023-05-10T11:58:32;1;1;
62054;PMS5003;48653;51.742;-1.256;2023-05-10T12:00:57;3;1;
62054;PMS5003;48653;51.742;-1.256;2023-05-10T12:03:22;2;2;
62054;PMS5003;48653;51.742;-1.256;2023-05-10T12:05:47;1;1;
62054;PMS5003;48653;51.742;-1.256;2023-05-10T12:08:12;4;2;
62054;PMS5003;48653;51.742;-1.256;2023-05-10T12:10:37;2;2;
62054;PMS5003;48653;51.742;-1.256;2023-05-10T12:13:02;0;0;
62054;PMS5003;48653;51.742;-1.256;2023-05-10T12:15:27;2;2;
62054;PMS5003;48653;51.742;-1.256;2023-05-10T12:17:52;0;0;
62054;PMS5003;48653;51.742;-1.256;2023-05-10T12:20:17;1;1;
62054;PMS5003;48653;51.742;-1.256;2023-05-10T12:22:43;2;2;
62054;PMS5003;48653;51.742;-1.256;2023-05-10T12:25:08;3;1;
62054;PMS5003;48653;51.742;-1.256;2023-05-10T12:27:32;3;2;
62054;PMS5003;48653;51.742;-1.256;2023-05-10T12:29:58;5;4;
62054;PMS5003;48653;51.742;-1.256;2023-05-10T12:32:22;1;1;
62054;PMS5003;48653;51.742;-1.256;2023-05-10T12:34:47;3;2;
62054;PMS5003;48653;51.742;-1.256;2023-05-10T12:37:12;2;1;
62054;PMS5003;48653;51.742;-1.256;2023-05-10T12:39:38;3;2;
62054;PMS5003;48653;51.742;-1.256;2023-05-10T12:42:02;3;3;
62054;PMS5003;48653;51.742;-1.256;2023-05-10T12:44:27;3;3;
62054;PMS5003;48653;51.742;-1.256;2023-05-10T12:46:52;2;2;
62054;PMS5003;48653;51.742;-1.256;2023-05-10T12:49:17;3;3;
62054;PMS5003;48653;51.742;-1.256;2023-05-10T12:51:42;2;2;
62054;PMS5003;48653;51.742;-1.256;2023-05-10T12:54:07;3;2;
62054;PMS5003;48653;51.742;-1.256;2023-05-10T12:56:32;3;2;
62054;PMS5003;48653;51.742;-1.256;2023-05-10T12:58:57;2;2;
62054;PMS5003;48653;51.742;-1.256;2023-05-10T13:01:22;4;2;
62054;PMS5003;48653;51.742;-1.256;2023-05-10T13:03:48;3;2;
62054;PMS5003;48653;51.742;-1.256;2023-05-10T13:06:13;1;1;
62054;PMS5003;48653;51.742;-1.256;2023-05-10T13:08:38;4;3;
62054;PMS5003;48653;51.742;-1.256;2023-05-10T13:11:04;0;0;
62054;PMS5003;48653;51.742;-1.256;2023-05-10T13:13:29;1;0;
62054;PMS5003;48653;51.742;-1.256;2023-05-10T13:15:53;3;2;
62054;PMS5003;48653;51.742;-1.256;2023-05-10T13:18:18;2;2;
62054;PMS5003;48653;51.742;-1.256;2023-05-10T13:20:43;2;1;
62054;PMS5003;48653;51.742;-1.256;2023-05-10T13:23:09;2;2;
62054;PMS5003;48653;51.742;-1.256;2023-05-10T13:25:34;2;2;
62054;PMS5003;48653;51.742;-1.256;2023-05-10T13:27:59;2;2;
62054;PMS5003;48653;51.742;-1.256;2023-05-10T13:30:24;3;3;
62054;PMS5003;48653;51.742;-1.256;2023-05-10T13:32:49;3;3;
62054;PMS5003;48653;51.742;-1.256;2023-05-10T13:35:14;2;2;
62054;PMS5003;48653;51.742;-1.256;2023-05-10T13:37:39;8;6;
62054;PMS5003;48653;51.742;-1.256;2023-05-10T13:40:04;5;4;
62054;PMS5003;48653;51.742;-1.256;2023-05-10T13:42:29;5;5;
62054;PMS5003;48653;51.742;-1.256;2023-05-10T13:44:54;9;4;
62054;PMS5003;48653;51.742;-1.256;2023-05-10T13:47:20;7;5;
62054;PMS5003;48653;51.742;-1.256;2023-05-10T13:49:45;7;4;
62054;PMS5003;48653;51.742;-1.256;2023-05-10T13:52:10;5;5;
62054;PMS5003;48653;51.742;-1.256;2023-05-10T13:54:35;6;4;
62054;PMS5003;48653;51.742;-1.256;2023-05-10T13:57:00;4;4;
62054;PMS5003;48653;51.742;-1.256;2023-05-10T13:59:25;2;2;
62054;PMS5003;48653;51.742;-1.256;2023-05-10T14:01:50;2;2;
62054;PMS5003;48653;51.742;-1.256;2023-05-10T14:04:15;2;2;
62054;PMS5003;48653;51.742;-1.256;2023-05-10T14:06:41;2;2;
62054;PMS5003;48653;51.742;-1.256;2023-05-10T14:09:06;2;2;
62054;PMS5003;48653;51.742;-1.256;2023-05-10T14:11:31;1;1;
62054;PMS5003;48653;51.742;-1.256;2023-05-10T14:13:56;1;0;
62054;PMS5003;48653;51.742;-1.256;2023-05-10T14:16:21;3;2;
62054;PMS5003;48653;51.742;-1.256;2023-05-10T14:18:46;4;3;
62054;PMS5003;48653;51.742;-1.256;2023-05-10T14:21:11;3;2;
62054;PMS5003;48653;51.742;-1.256;2023-05-10T14:23:37;2;0;
62054;PMS5003;48653;51.742;-1.256;2023-05-10T14:26:02;2;2;
62054;PMS5003;48653;51.742;-1.256;2023-05-10T14:28:27;2;1;
62054;PMS5003;48653;51.742;-1.256;2023-05-10T14:30:52;1;1;
62054;PMS5003;48653;51.742;-1.256;2023-05-10T14:33:17;3;3;
62054;PMS5003;48653;51.742;-1.256;2023-05-10T14:35:42;4;4;
62054;PMS5003;48653;51.742;-1.256;2023-05-10T14:38:07;3;2;
62054;PMS5003;48653;51.742;-1.256;2023-05-10T14:40:32;2;2;
62054;PMS5003;48653;51.742;-1.256;2023-05-10T14:42:57;1;1;
62054;PMS5003;48653;51.742;-1.256;2023-05-10T14:45:22;2;1;
62054;PMS5003;48653;51.742;-1.256;2023-05-10T14:47:48;5;3;
62054;PMS5003;48653;51.742;-1.256;2023-05-10T14:50:13;3;1;
62054;PMS5003;48653;51.742;-1.256;2023-05-10T14:52:38;5;3;
62054;PMS5003;48653;51.742;-1.256;2023-05-10T14:55:03;6;3;
62054;PMS5003;48653;51.742;-1.256;2023-05-10T14:57:28;2;2;
62054;PMS5003;48653;51.742;-1.256;2023-05-10T14:59:53;5;3;
62054;PMS5003;48653;51.742;-1.256;2023-05-10T15:02:18;4;4;
62054;PMS5003;48653;51.742;-1.256;2023-05-10T15:04:43;6;3;
62054;PMS5003;48653;51.742;-1.256;2023-05-10T15:07:08;3;3;
62054;PMS5003;48653;51.742;-1.256;2023-05-10T15:09:33;6;3;
62054;PMS5003;48653;51.742;-1.256;2023-05-10T15:11:59;3;3;
62054;PMS5003;48653;51.742;-1.256;2023-05-10T15:14:24;5;3;
62054;PMS5003;48653;51.742;-1.256;2023-05-10T15:16:49;6;4;
62054;PMS5003;48653;51.742;-1.256;2023-05-10T15:19:14;5;2;
62054;PMS5003;48653;51.742;-1.256;2023-05-10T15:21:39;4;3;
62054;PMS5003;48653;51.742;-1.256;2023-05-10T15:24:04;5;2;
62054;PMS5003;48653;51.742;-1.256;2023-05-10T15:26:29;6;4;
62054;PMS5003;48653;51.742;-1.256;2023-05-10T15:28:54;5;4;
62054;PMS5003;48653;51.742;-1.256;2023-05-10T15:31:19;6;4;
62054;PMS5003;48653;51.742;-1.256;2023-05-10T15:33:44;2;2;
62054;PMS5003;48653;51.742;-1.256;2023-05-10T15:36:09;4;4;
62054;PMS5003;48653;51.742;-1.256;2023-05-10T15:38:34;3;3;
62054;PMS5003;48653;51.742;-1.256;2023-05-10T15:41:00;5;4;
62054;PMS5003;48653;51.742;-1.256;2023-05-10T15:43:25;3;3;
62054;PMS5003;48653;51.742;-1.256;2023-05-10T15:45:50;2;2;
62054;PMS5003;48653;51.742;-1.256;2023-05-10T15:48:15;4;4;
62054;PMS5003;48653;51.742;-1.256;2023-05-10T15:50:41;2;2;
62054;PMS5003;48653;51.742;-1.256;2023-05-10T15:53:05;3;3;
62054;PMS5003;48653;51.742;-1.256;2023-05-10T15:55:30;7;4;
62054;PMS5003;48653;51.742;-1.256;2023-05-10T15:57:55;3;3;
62054;PMS5003;48653;51.742;-1.256;2023-05-10T16:00:21;6;4;
62054;PMS5003;48653;51.742;-1.256;2023-05-10T16:02:46;5;5;
62054;PMS5003;48653;51.742;-1.256;2023-05-10T16:05:11;9;2;
62054;PMS5003;48653;51.742;-1.256;2023-05-10T16:07:36;4;3;
62054;PMS5003;48653;51.742;-1.256;2023-05-10T16:10:01;4;3;
62054;PMS5003;48653;51.742;-1.256;2023-05-10T16:12:26;4;4;
62054;PMS5003;48653;51.742;-1.256;2023-05-10T16:14:51;3;3;
62054;PMS5003;48653;51.742;-1.256;2023-05-10T16:17:16;5;3;
62054;PMS5003;48653;51.742;-1.256;2023-05-10T16:19:41;3;3;
62054;PMS5003;48653;51.742;-1.256;2023-05-10T16:22:06;6;3;
62054;PMS5003;48653;51.742;-1.256;2023-05-10T16:24:31;5;5;
62054;PMS5003;48653;51.742;-1.256;2023-05-10T16:26:57;6;6;
62054;PMS5003;48653;51.742;-1.256;2023-05-10T16:29:22;7;5;